Carson Valley, Nevada Weather observations

Data are for 10 minute period ending at time listed.
 Day   Time   Solar   Ave.   Ave.  Ave.  Vector  Max.   Baro.   Total    
  of    of     Rad.   Air    Rel.  Wind   Wind   Wind  Press.  Precip.   
Year   Day            Temp.  Hum.  Speed  Dir.   Gust                    
2014   (PST)  Kw/m2    F      %     mph   deg.    mph    mb.     in.     
-------------------------------------------------------------------------
 274    2:50   0.00   38.2    73    2.6   311     4.0   858.1    0.00 
 274    3:00   0.00   39.6    68    3.0     0     4.5   858.2    0.00 
 274    3:10   0.00   39.3    68    3.3    40     5.1   858.2    0.00 
 274    3:20   0.00   38.0    71    2.3    82     6.0   858.4    0.00 
 274    3:30   0.00   39.6    68    0.6   282     1.5   858.5    0.00 
 274    3:40   0.00   40.7    65    1.2   288     2.2   858.7    0.00 
 274    3:50   0.00   40.8    63    2.3   316     3.1   858.7    0.00 
 274    4:00   0.00   41.3    64    2.4    65     4.7   858.9    0.00 
 274    4:10   0.00   37.6    78    2.9   198     3.9   858.9    0.00 
 274    4:20   0.00   36.1    81    3.4   195     4.2   859.0    0.00 
 274    4:30   0.00   33.9    86    2.3   174     4.2   859.1    0.00 
 274    4:40   0.00   34.1    86    3.1   173     3.7   859.1    0.00 
 274    4:50   0.00   33.5    87    3.7   188     4.6   859.3    0.00 
 274    5:00   0.00   33.6    88    1.9   155     3.7   859.3    0.00 
 274    5:10   0.00   32.7    87    0.7   140     2.0   859.5    0.00 
 274    5:20   0.00   32.5    88    0.8   121     2.9   859.5    0.00 
 274    5:30   0.00   32.2    89    0.3   121     1.2   859.6    0.00 
 274    5:40   0.00   32.4    90    1.1   124     2.8   859.7    0.00 
 274    5:50   0.00   31.9    89    1.2   106     2.4   859.9    0.00 
 274    6:00   0.00   31.5    90    0.8   105     2.7   859.9    0.00 
 274    6:10   0.01   31.3    90    0.0     0     0.0   860.0    0.00 
 274    6:20   0.05   31.7    90    0.8    37     2.6   860.1    0.00 
 274    6:30   0.08   32.8    89    0.6   320     1.5   860.2    0.00 
 274    6:40   0.11   34.0    86    0.8    16     1.5   860.4    0.00 
 274    6:50   0.14   35.0    82    0.9   335     1.8   860.5    0.00 
 274    7:00   0.17   36.0    80    0.7   350     1.5   860.7    0.00 
 274    7:10   0.20   37.7    76    0.5   279     1.2   860.6    0.00 
 274    7:20   0.23   40.1    74    0.2   313     1.0   860.6    0.00 
 274    7:30   0.27   41.6    71    0.4   274     1.3   860.7    0.00 
 274    7:40   0.30   43.8    67    0.4   247     1.2   860.7    0.00 
 274    7:50   0.34   45.5    64    0.6   267     1.1   860.7    0.00 
 274    8:00   0.37   45.9    58    1.4   282     2.2   860.7    0.00 
 274    8:10   0.40   47.3    56    0.8   283     2.0   860.7    0.00 
 274    8:20   0.44   48.5    53    1.5   292     2.9   860.7    0.00 
 274    8:30   0.47   49.3    54    1.3   260     2.7   860.8    0.00 
 274    8:40   0.50   50.5    49    1.3   281     4.2   860.9    0.00 
 274    8:50   0.53   51.3    45    2.3   355     4.2   860.9    0.00 
 274    9:00   0.56   53.2    40    1.9    33     5.4   861.1    0.00 
 274    9:10   0.59   53.6    41    1.5   310     3.8   861.2    0.00 
 274    9:20   0.61   54.7    39    1.5   270     3.5   861.2    0.00 
 274    9:30   0.64   55.3    35    1.8    25     5.4   861.3    0.00 
 274    9:40   0.66   57.0    32    1.6   302     4.5   861.4    0.00 
 274    9:50   0.68   54.9    36    3.5   300     6.9   861.3    0.00 
 274   10:00   0.70   54.8    34    2.6   283     6.1   861.2    0.00 
 274   10:10   0.72   56.8    32    4.0   106     6.7   861.2    0.00 
 274   10:20   0.74   57.1    32    2.1   217     6.4   861.1    0.00 
 274   10:30   0.75   57.0    33    3.0   328     7.1   861.0    0.00 
 274   10:40   0.77   58.2    30    4.5    95     7.5   860.9    0.00 
 274   10:50   0.78   58.0    29    2.9   118     7.4   860.9    0.00 
 274   11:00   0.79   58.5    31    1.9   203     4.7   860.8    0.00 
 274   11:10   0.80   58.9    31    3.5   183     6.6   860.8    0.00 
 274   11:20   0.80   59.3    31    4.5   188     8.3   860.7    0.00 
 274   11:30   0.81   59.3    30    3.4   187     8.3   860.6    0.00 
 274   11:40   0.81   58.2    33    4.8   296     9.3   860.6    0.00 
 274   11:50   0.81   58.3    34    4.7   310     8.8   860.5    0.00 
 274   12:00   0.81   58.7    32    3.3   283     8.3   860.4    0.00 
 274   12:10   0.80   60.5    30    1.8   118     4.2   860.3    0.00 
 274   12:20   0.80   60.6    31    3.4   337     6.9   860.3    0.00 
 274   12:30   0.79   60.8    27    3.9    18     7.0   860.1    0.00 
 274   12:40   0.78   60.7    29    3.3   329     9.0   860.0    0.00 
 274   12:50   0.77   60.1    31    3.8   304     7.3   859.9    0.00 
 274   13:00   0.76   61.0    32    3.8   285     8.4   859.9    0.00 
 274   13:10   0.75   60.6    30    6.2   269    12.6   859.7    0.00 
 274   13:20   0.73   62.3    29    1.5   324     4.7   859.6    0.00 
 274   13:30   0.72   63.2    26    2.4    20     6.9   859.6    0.00 
 274   13:40   0.70   63.6    25    2.7    66     5.9   859.6    0.00 
 274   13:50   0.68   63.1    28    2.4   312     7.7   859.6    0.00 
 274   14:00   0.66   63.4    27    4.1    23    11.8   859.6    0.00 
 274   14:10   0.63   63.8    26    5.2    30    13.0   859.6    0.00 
 274   14:20   0.61   63.6    27    6.8     6    13.7   859.6    0.00 
 274   14:30   0.58   63.9    25    6.1    33    10.3   859.5    0.00 
 274   14:40   0.56   64.3    24    6.6    25    12.2   859.5    0.00 
 274   14:50   0.53   64.1    26    5.5    19     9.9   859.4    0.00 
 274   15:00   0.50   64.2    26    6.0    11    10.8   859.4    0.00 
 274   15:10   0.47   64.1    25    5.0     8     9.7   859.4    0.00 
 274   15:20   0.44   64.1    26    5.3     3     8.8   859.3    0.00 
 274   15:30   0.41   64.0    26    4.6     2     9.7   859.3    0.00 
 274   15:40   0.37   64.6    25    3.7    27     6.1   859.3    0.00 
 274   15:50   0.34   64.7    24    5.6    22     8.6   859.4    0.00 
 274   16:00   0.30   64.6    24    5.5    22     7.7   859.4    0.00 
 274   16:10   0.27   64.2    26    4.6    10     6.7   859.4    0.00 
 274   16:20   0.24   64.1    26    4.9    12     8.5   859.4    0.00 
 274   16:30   0.20   63.9    26    5.8    18     9.5   859.4    0.00 
 274   16:40   0.17   63.3    27    6.7    19    11.7   859.4    0.00 
 274   16:50   0.14   62.2    27    7.0     4     9.3   859.4    0.00 
 274   17:00   0.07   61.1    29    6.7     6     9.7   859.4    0.00 
 274   17:10   0.02   56.8    43    4.7   319     6.6   859.5    0.00 
 274   17:20   0.01   54.0    49    4.3   320     6.8   859.5    0.00 
 274   17:30   0.01   53.8    46    5.3   338     7.7   859.6    0.00 
 274   17:40   0.01   52.9    48    4.8   334     6.0   859.5    0.00 
 274   17:50   0.00   51.9    52    3.1   314     4.5   859.4    0.00 
 274   18:00   0.00   51.2    47    5.0   343     6.2   859.5    0.00 
 274   18:10   0.00   50.7    47    6.0   346     7.6   859.5    0.00 
 274   18:20   0.00   51.2    44    6.8   349     9.2   859.7    0.00 
 274   18:30   0.00   51.9    43    7.3   342    10.4   859.8    0.00 
 274   18:40   0.00   52.1    42    7.3   340    11.2   859.9    0.00 
 274   18:50   0.00   51.9    42    7.2   338    10.1   860.0    0.00 
 274   19:00   0.00   51.4    43    6.8   340     8.6   860.2    0.00 
 274   19:10   0.00   50.5    45    5.4   340     7.5   860.3    0.00 
 274   19:20   0.00   50.4    43    6.1   342     8.1   860.5    0.00 
 274   19:30   0.00   49.9    44    4.9   338     6.2   860.6    0.00 
 274   19:40   0.00   49.8    46    4.7   335     7.4   860.6    0.00 
 274   19:50   0.00   49.0    48    4.1   318     6.9   860.7    0.00 
 274   20:00   0.00   47.2    53    3.8   316     5.5   860.8    0.00 
 274   20:10   0.00   45.6    56    3.5   306     4.7   860.9    0.00 
 274   20:20   0.00   45.2    57    4.0   312     5.0   860.9    0.00 
 274   20:30   0.00   46.2    51    4.0   315     5.6   860.9    0.00 
 274   20:40   0.00   45.9    54    3.7   324     5.3   861.0    0.00 
 274   20:50   0.00   45.4    51    2.3    30     4.8   861.1    0.00 
 274   21:00   0.00   46.0    44    2.5    62     4.1   861.2    0.00 
 274   21:10   0.00   43.0    51    4.4    74     5.6   861.3    0.00 
 274   21:20   0.00   42.5    53    2.2    78     3.4   861.4    0.00 
 274   21:30   0.00   40.3    64    2.7   134     5.1   861.5    0.00 
 274   21:40   0.00   38.4    71    2.1   180     3.4   861.6    0.00 
 274   21:50   0.00   37.0    76    1.7   224     4.8   861.7    0.00 
 274   22:00   0.00   37.3    80    2.0   203     3.4   861.8    0.00 
 274   22:10   0.00   37.0    79    2.7   171     4.2   861.8    0.00 
 274   22:20   0.00   36.7    80    2.0   172     3.2   861.8    0.00 
 274   22:30   0.00   36.8    81    2.2   179     3.1   861.8    0.00 
 274   22:40   0.00   37.2    81    2.3   221     3.2   861.9    0.00 
 274   22:50   0.00   37.1    80    0.9   297     2.7   862.0    0.00 
 274   23:00   0.00   35.6    81    1.6   158     4.5   862.0    0.00 
 274   23:10   0.00   33.0    82    1.8   103     3.4   862.0    0.00 
 274   23:20   0.00   33.7    87    1.9   110     2.3   862.1    0.00 
 274   23:30   0.00   35.2    86    1.1   149     2.4   862.1    0.00 
 274   23:40   0.00   34.6    86    0.8   179     1.2   862.1    0.00 
 274   23:50   0.00   34.6    87    1.0   250     2.0   862.1    0.00 
 275    0:00   0.00   35.3    87    0.7   238     1.7   862.1    0.00 
 275    0:10   0.00   32.8    86    2.3    62     3.4   862.1    0.00 
 275    0:20   0.00   31.9    84    2.5    68     3.1   862.1    0.00 
 275    0:30   0.00   32.3    82    2.2    83     2.9   862.3    0.00 
 275    0:40   0.00   33.3    82    1.9   109     2.7   862.3    0.00 
 275    0:50   0.00   33.9    78    1.4   120     3.3   862.4    0.00 
 275    1:00   0.00   33.6    80    0.2   230     1.7   862.4    0.00 
 275    1:10   0.00   32.8    81    1.3   136     2.0   862.4    0.00 
 275    1:20   0.00   32.5    82    0.5   158     1.5   862.5    0.00 
 275    1:30   0.00   32.8    86    0.8   332     1.6   862.5    0.00 
 275    1:40   0.00   32.6    88    0.8     8     1.5   862.6    0.00 
 275    1:50   0.00   31.4    88    0.7    67     1.3   862.6    0.00 
 275    2:00   0.00   31.6    88    0.3    63     1.3   862.6    0.00 
 275    2:10   0.00   31.7    87    2.2   122     2.9   862.5    0.00 
 275    2:20   0.00   30.8    82    2.4   120     3.1   862.6    0.00 
 275    2:30   0.00   29.2    83    2.1   106     2.9   862.7    0.00 
 275    2:40   0.00   29.5    85    2.0   127     3.1   862.6    0.00 

Return to Carson Valley graphs page.


Western Regional Climate Center,wrcc@dri.edu